Nenjiang, China
Current Conditions -  °F | °C
As of 1:00 AM on Friday 28 Nov 2014 (Local Time) from UHBB Reporting Station
Clear Clear  
Wind Chill: -2°   Ceiling: Unl
Heat Index: -2°   Visibility: 6mi
Dew Point: -11°   Wind: 2mph
Humidity: 66%   Direction: NA
Pressure: 30.3"   Gusts: NA
Location:  49.18°N, 125.23°E
Report Text: UHBB 271700Z VRB01MPS CAVOK M19/M24 Q1026 NOSIG RMK QFE751/100236410250
Loading
Personal Weather Stations






























Interactive Weather Map New forecast layout! Learn more

10-Day Weather Forecast

Advertisements
Track Severe Weather on mobile